PWSweather.com
Personal Weather Stations
Station Observations
KVAGLENALL
West Henrico, Glen Allen, VA 23060-6503

West HenricoGlen Allen, VA 23060-6503

Lat: 37.6554, Lon: -77.5693

Elevation: 273

Station Type: Davis Vantage Pro II

www.glenallenweather.com

High Low Average
Temperature 78.9°F26.1°C 59.8°F15.4°C 70.1°F21.2°C
Dew Point 71.6°F22.0°C 53.6°F12.0°C 60.4°F15.8°C
Winds 13.0 mph 20.9 kmh Calm Calm 4.0 mph SSW6.4 kmh SSW
Wind Gusts 19.2 mph30.9 kmh -- 8.0 mph12.9 kmh
Humidity 96% 42% 74%
Pressure 30.11 in1019.6 mb 29.88 in1011.9 mb -
Precipitation 0.00 in0.0 mm - -
Hour Temp Dew Point Humidity Winds Wind Gusts Pressure Precip Precip Rate Daily Precip Total
12:00 AM 73.6°F23.1°C 72.4°F22.4°C 96% 7.0 mph SW11.3 kmh SW 7.1 mph11.4 kmh 29.88 in1011.9 mb 0.05 in1.3 mm 0.00 in0.0 mm 0.05 in1.3 mm
01:00 AM 72.8°F22.7°C 71.6°F22.0°C 96% Calm Calm 5.1 mph8.2 kmh 29.88 in1011.9 mb 0.03 in0.8 mm 0.00 in0.0 mm 0.05 in1.3 mm
02:00 AM 72.3°F22.4°C 71.1°F21.7°C 96% Calm Calm 1.0 mph1.6 kmh 29.88 in1011.9 mb 0.03 in0.8 mm 0.00 in0.0 mm 0.05 in1.3 mm
03:00 AM 69.5°F20.8°C 68.0°F20.0°C 95% 6.0 mph N9.7 kmh N 13.1 mph21.1 kmh 29.90 in1012.5 mb 0.35 in8.9 mm 0.00 in0.0 mm 0.37 in9.4 mm
04:00 AM 67.7°F19.8°C 66.6°F19.2°C 96% 1.0 mph N1.6 kmh N 4.0 mph6.4 kmh 29.90 in1012.5 mb 0.05 in1.3 mm 0.00 in0.0 mm 0.37 in9.4 mm
05:00 AM 67.9°F19.9°C 66.8°F19.3°C 96% 8.0 mph N12.9 kmh N 8.1 mph13.0 kmh 29.92 in1013.2 mb 0.00 in0.0 mm 0.00 in0.0 mm 0.37 in9.4 mm
06:00 AM 66.4°F19.1°C 63.7°F17.6°C 91% 7.0 mph NNE11.3 kmh NNE 13.1 mph21.1 kmh 29.96 in1014.6 mb 0.00 in0.0 mm 0.00 in0.0 mm 0.37 in9.4 mm
07:00 AM 64.9°F18.3°C 62.2°F16.8°C 91% 4.0 mph NE6.4 kmh NE 6.1 mph9.8 kmh 30.00 in1015.9 mb 0.00 in0.0 mm 0.00 in0.0 mm 0.37 in9.4 mm
08:00 AM 65.2°F18.4°C 61.6°F16.4°C 88% 4.0 mph NNW6.4 kmh NNW 9.1 mph14.6 kmh 30.02 in1016.6 mb 0.00 in0.0 mm 0.00 in0.0 mm 0.37 in9.4 mm
09:00 AM 68.5°F20.3°C 60.7°F15.9°C 76% 3.0 mph NNE4.8 kmh NNE 11.1 mph17.9 kmh 30.04 in1017.3 mb 0.00 in0.0 mm 0.00 in0.0 mm 0.37 in9.4 mm
10:00 AM 72.1°F22.3°C 61.3°F16.3°C 69% 5.0 mph NE8.0 kmh NE 11.1 mph17.9 kmh 30.05 in1017.6 mb 0.00 in0.0 mm 0.00 in0.0 mm 0.37 in9.4 mm
11:00 AM 72.7°F22.6°C 56.1°F13.4°C 56% 12.0 mph NNE19.3 kmh NNE 16.2 mph26.1 kmh 30.06 in1017.9 mb 0.00 in0.0 mm 0.00 in0.0 mm 0.37 in9.4 mm
12:00 PM 74.2°F23.4°C 58.9°F14.9°C 59% 4.0 mph N6.4 kmh N 14.1 mph22.7 kmh 30.07 in1018.3 mb 0.00 in0.0 mm 0.00 in0.0 mm 0.37 in9.4 mm
01:00 PM 75.8°F24.3°C 58.5°F14.7°C 55% 7.0 mph NE11.3 kmh NE 14.1 mph22.7 kmh 30.06 in1017.9 mb 0.00 in0.0 mm 0.00 in0.0 mm 0.37 in9.4 mm
02:00 PM 76.9°F24.9°C 55.7°F13.2°C 48% 8.0 mph NW12.9 kmh NW 15.1 mph24.3 kmh 30.06 in1017.9 mb 0.00 in0.0 mm 0.00 in0.0 mm 0.37 in9.4 mm
03:00 PM 78.6°F25.9°C 55.5°F13.1°C 45% 6.0 mph NE9.7 kmh NE 11.1 mph17.9 kmh 30.05 in1017.6 mb 0.00 in0.0 mm 0.00 in0.0 mm 0.37 in9.4 mm
04:00 PM 78.6°F25.9°C 53.6°F12.0°C 42% 13.0 mph N20.9 kmh N 19.2 mph30.9 kmh 30.06 in1017.9 mb 0.00 in0.0 mm 0.00 in0.0 mm 0.37 in9.4 mm
05:00 PM 78.9°F26.1°C 56.4°F13.6°C 46% 8.0 mph N12.9 kmh N 12.1 mph19.5 kmh 30.07 in1018.3 mb 0.00 in0.0 mm 0.00 in0.0 mm 0.37 in9.4 mm
06:30 PM 74.9°F23.8°C 55.0°F12.8°C 50% 4.0 mph N6.4 kmh N 8.1 mph13.0 kmh 30.06 in1017.9 mb 0.00 in0.0 mm 0.00 in0.0 mm 0.37 in9.4 mm
07:30 PM 71.7°F22.1°C 57.5°F14.2°C 61% 1.0 mph NNW1.6 kmh NNW 1.0 mph1.6 kmh 30.08 in1018.6 mb 0.00 in0.0 mm 0.00 in0.0 mm 0.37 in9.4 mm
08:30 PM 66.2°F19.0°C 58.5°F14.7°C 76% Calm Calm -- 30.08 in1018.6 mb 0.00 in0.0 mm 0.00 in0.0 mm 0.37 in9.4 mm
09:30 PM 63.8°F17.7°C 58.6°F14.8°C 83% Calm Calm -- 30.09 in1019.0 mb 0.00 in0.0 mm 0.00 in0.0 mm 0.37 in9.4 mm
10:30 PM 62.0°F16.7°C 58.4°F14.7°C 88% Calm Calm -- 30.09 in1019.0 mb 0.00 in0.0 mm 0.00 in0.0 mm 0.37 in9.4 mm
11:30 PM 60.6°F15.9°C 57.0°F13.9°C 88% Calm Calm -- 30.11 in1019.6 mb 0.00 in0.0 mm 0.00 in0.0 mm 0.37 in9.4 mm